Time;durP1;ratioP1;P1;durP2;ratioP2;P2;SDS_P1;SDS_P2;PMS_P1;PMS_P2;Temp;Humidity;BMP_temperature;BMP_pressure;BME280_temperature;BME280_humidity;BME280_pressure;Samples;Min_cycle;Max_cycle;Signal;HPM_P1;HPM_P2
2022/01/25 00:08:23;;;;;;;109.67;49.97;;;2.40;99.90;;;;;;5105841;27;20215;-71
2022/01/25 00:08:38;;;;;;;105.63;46.23;;;2.50;99.90;;;;;;5107479;27;20236;-73
2022/01/25 00:27:10;;;;;;;225.53;101.63;;;2.60;99.90;;;;;;5111646;27;20252;-72
2022/01/25 00:30:20;;;;;;;124.67;54.07;;;2.60;99.90;;;;;;5108446;27;20229;-78
2022/01/25 00:33:08;;;;;;;122.53;52.47;;;2.50;99.90;;;;;;5113291;27;20706;-79
2022/01/25 00:35:57;;;;;;;119.07;50.80;;;2.60;99.90;;;;;;5129911;27;20363;-80
2022/01/25 00:38:47;;;;;;;116.07;49.73;;;2.70;99.90;;;;;;5110359;27;20294;-79
2022/01/25 00:41:36;;;;;;;112.23;48.60;;;2.70;99.90;;;;;;5121496;27;20222;-80
2022/01/25 00:44:34;;;;;;;113.03;46.23;;;2.60;99.90;;;;;;5112347;27;20300;-79
2022/01/25 00:47:25;;;;;;;105.43;46.83;;;2.60;99.90;;;;;;5128844;27;20750;-81
2022/01/25 00:50:15;;;;;;;106.67;45.03;;;2.60;99.90;;;;;;5120934;27;20217;-79
2022/01/25 00:56:07;;;;;;;105.80;45.43;;;2.60;99.90;;;;;;5100706;27;20325;-77
2022/01/25 00:58:56;;;;;;;103.33;44.63;;;2.60;99.90;;;;;;5140874;27;20599;-77
2022/01/25 01:01:48;;;;;;;100.67;43.43;;;2.70;99.90;;;;;;5113175;27;20217;-77
2022/01/25 01:04:37;;;;;;;95.77;42.30;;;2.70;99.90;;;;;;5103826;27;20238;-79
2022/01/25 01:07:25;;;;;;;94.50;42.53;;;2.60;99.90;;;;;;5109798;27;20780;-76
2022/01/25 01:10:19;;;;;;;99.23;42.13;;;2.60;99.90;;;;;;5114414;27;20214;-77
2022/01/25 01:16:49;;;;;;;87.23;39.63;;;2.60;99.90;;;;;;5085118;27;20217;-76
2022/01/25 01:29:26;;;;;;;89.70;40.40;;;2.50;99.90;;;;;;5108573;27;20226;-78
2022/01/25 01:32:38;;;;;;;95.03;41.33;;;2.60;99.90;;;;;;5108115;27;20292;-77
2022/01/25 01:35:46;;;;;;;90.43;39.20;;;2.70;99.90;;;;;;5101103;27;20263;-79
2022/01/25 01:45:13;;;;;;;106.83;42.00;;;2.60;99.90;;;;;;5063257;28;20232;-79
2022/01/25 01:48:05;;;;;;;106.07;44.63;;;2.50;99.90;;;;;;5111403;27;20658;-76
2022/01/25 01:51:01;;;;;;;115.37;45.97;;;2.60;99.90;;;;;;5111517;27;21030;-78
2022/01/25 01:53:50;;;;;;;114.87;45.27;;;2.60;99.90;;;;;;5106954;27;20218;-78
2022/01/25 01:56:41;;;;;;;108.73;44.50;;;2.70;99.90;;;;;;5133923;27;20233;-78
2022/01/25 01:59:30;;;;;;;109.70;44.63;;;2.60;99.90;;;;;;5107767;27;20697;-78
2022/01/25 02:02:19;;;;;;;113.10;44.43;;;2.70;99.90;;;;;;5122425;27;20218;-78
2022/01/25 02:05:08;;;;;;;115.13;44.13;;;2.80;99.90;;;;;;5102423;27;20369;-77
2022/01/25 02:07:58;;;;;;;107.10;43.03;;;2.70;99.90;;;;;;5119348;27;20348;-77
2022/01/25 02:10:47;;;;;;;108.87;42.77;;;2.80;99.90;;;;;;5105632;27;20210;-78
2022/01/25 02:13:37;;;;;;;113.03;42.50;;;2.70;99.90;;;;;;5121891;27;20214;-78
2022/01/25 02:16:39;;;;;;;109.23;40.60;;;2.60;99.90;;;;;;5106664;27;22247;-79
2022/01/25 02:22:36;;;;;;;103.47;38.57;;;2.60;99.90;;;;;;5100245;28;20528;-79
2022/01/25 02:25:25;;;;;;;97.63;37.63;;;2.70;99.90;;;;;;5102987;27;20279;-79
2022/01/25 02:28:14;;;;;;;100.73;37.63;;;2.70;99.90;;;;;;5103138;27;20218;-79
2022/01/25 02:31:04;;;;;;;91.80;37.77;;;2.70;99.90;;;;;;5100628;28;20223;-78
2022/01/25 02:33:53;;;;;;;89.23;36.30;;;2.60;99.90;;;;;;5100226;28;20309;-78
2022/01/25 02:36:42;;;;;;;84.23;34.53;;;2.70;99.90;;;;;;5103023;27;20215;-78
2022/01/25 02:39:33;;;;;;;85.43;35.40;;;2.70;99.90;;;;;;5116904;27;20222;-80
2022/01/25 02:42:22;;;;;;;87.93;35.20;;;2.70;99.90;;;;;;5122624;27;20257;-75
2022/01/25 02:45:15;;;;;;;81.23;33.73;;;2.70;99.90;;;;;;5093560;27;20217;-77
2022/01/25 02:51:14;;;;;;;73.23;31.60;;;2.80;99.90;;;;;;5092605;27;20236;-77
2022/01/25 02:54:04;;;;;;;73.20;32.57;;;2.60;99.90;;;;;;5115071;27;20239;-77
2022/01/25 02:56:55;;;;;;;78.03;32.43;;;2.70;99.90;;;;;;5108283;27;20760;-78
2022/01/25 02:59:43;;;;;;;71.60;31.63;;;2.70;99.90;;;;;;5120938;27;20226;-78
2022/01/25 03:02:32;;;;;;;78.50;32.10;;;2.70;99.90;;;;;;5111851;28;20705;-77
2022/01/25 03:05:21;;;;;;;78.80;31.80;;;2.50;99.90;;;;;;5123310;27;20220;-77
2022/01/25 03:08:12;;;;;;;72.50;30.60;;;2.60;99.90;;;;;;5118971;27;20356;-77
2022/01/25 03:11:01;;;;;;;75.23;31.07;;;2.70;99.90;;;;;;5121978;27;20218;-77
2022/01/25 03:13:54;;;;;;;72.83;31.20;;;2.60;99.90;;;;;;5106605;27;21159;-77
2022/01/25 03:16:46;;;;;;;79.23;32.70;;;2.70;99.90;;;;;;5097074;28;20215;-77
2022/01/25 03:19:48;;;;;;;75.53;31.13;;;2.60;99.90;;;;;;5101040;27;20225;-76
2022/01/25 03:22:57;;;;;;;80.20;30.97;;;2.80;99.90;;;;;;5100210;28;20739;-77
2022/01/25 03:25:48;;;;;;;75.20;31.33;;;2.80;99.90;;;;;;5113198;27;20725;-77
2022/01/25 03:28:37;;;;;;;74.40;30.93;;;2.80;99.90;;;;;;5106387;27;20227;-77
2022/01/25 03:31:27;;;;;;;69.03;29.90;;;2.80;99.90;;;;;;5106476;27;20904;-77
2022/01/25 03:34:16;;;;;;;68.50;29.17;;;2.70;99.90;;;;;;5108479;27;20222;-77
2022/01/25 03:37:05;;;;;;;70.67;29.47;;;2.80;99.90;;;;;;5109241;27;20222;-77
2022/01/25 03:39:54;;;;;;;73.00;30.80;;;2.90;99.90;;;;;;5105504;27;20221;-77
2022/01/25 03:42:44;;;;;;;82.93;29.90;;;2.90;99.90;;;;;;5100905;27;21023;-78
2022/01/25 03:45:36;;;;;;;78.27;32.30;;;2.90;99.90;;;;;;5119158;27;20215;-77
2022/01/25 03:51:33;;;;;;;82.87;30.63;;;2.80;99.90;;;;;;5116525;27;20225;-77
2022/01/25 03:54:22;;;;;;;81.23;30.13;;;2.90;99.90;;;;;;5124516;27;20260;-81
2022/01/25 03:57:10;;;;;;;78.53;29.50;;;3.00;99.90;;;;;;5106988;27;20240;-78
2022/01/25 04:00:00;;;;;;;82.67;31.23;;;2.90;99.90;;;;;;5123509;27;20214;-78
2022/01/25 04:03:03;;;;;;;69.73;28.87;;;2.80;99.90;;;;;;5129076;27;20229;-76
2022/01/25 04:05:58;;;;;;;76.53;28.70;;;2.80;99.90;;;;;;5090648;27;20215;-77
2022/01/25 04:08:47;;;;;;;69.93;27.37;;;2.80;99.90;;;;;;5102274;27;20432;-77
2022/01/25 04:11:37;;;;;;;72.97;27.87;;;2.80;99.90;;;;;;5109528;27;20630;-77
2022/01/25 04:14:26;;;;;;;72.43;28.50;;;2.80;99.90;;;;;;5109061;27;20872;-77
2022/01/25 04:17:19;;;;;;;72.37;27.83;;;2.80;99.90;;;;;;5133456;27;20232;-78
2022/01/25 04:20:16;;;;;;;64.07;26.40;;;2.70;99.90;;;;;;5109249;27;20665;-78
2022/01/25 04:26:12;;;;;;;59.40;25.33;;;2.80;99.90;;;;;;5099329;27;20226;-78
2022/01/25 04:29:01;;;;;;;58.70;24.63;;;2.60;99.90;;;;;;5101181;27;20432;-77
2022/01/25 04:31:50;;;;;;;57.60;24.57;;;2.60;99.90;;;;;;5105293;27;20223;-77
2022/01/25 04:34:44;;;;;;;64.03;23.27;;;2.70;99.90;;;;;;5100365;27;20233;-77
2022/01/25 04:50:00;;;;;;;62.90;23.70;;;2.80;99.90;;;;;;5102432;27;20237;-77
2022/01/25 04:52:55;;;;;;;54.97;23.73;;;2.70;99.90;;;;;;5102297;27;20253;-78
2022/01/25 04:55:52;;;;;;;58.00;22.23;;;2.80;99.90;;;;;;5095990;27;20233;-78
2022/01/25 04:58:47;;;;;;;61.33;24.03;;;2.70;99.90;;;;;;5096378;27;20215;-78
2022/01/25 05:01:37;;;;;;;59.77;24.37;;;2.80;99.90;;;;;;5100035;27;20229;-77
2022/01/25 05:04:30;;;;;;;58.00;24.77;;;2.90;99.90;;;;;;5101319;27;20305;-78
2022/01/25 05:07:30;;;;;;;59.03;22.93;;;2.90;99.90;;;;;;5098814;27;21040;-78
2022/01/25 05:10:19;;;;;;;65.70;23.60;;;2.90;99.90;;;;;;5102487;27;20716;-78
2022/01/25 05:13:18;;;;;;;58.07;23.47;;;2.80;99.90;;;;;;5099399;27;20219;-79
2022/01/25 05:16:15;;;;;;;57.37;24.10;;;2.80;99.90;;;;;;5101898;27;20218;-77
2022/01/25 05:19:20;;;;;;;58.87;23.90;;;2.90;99.90;;;;;;5111095;27;20223;-77
2022/01/25 05:22:19;;;;;;;56.30;23.27;;;2.90;99.90;;;;;;5100757;27;20217;-78
2022/01/25 05:25:08;;;;;;;62.30;25.57;;;2.90;99.90;;;;;;5103300;27;20239;-78
2022/01/25 05:27:57;;;;;;;59.20;24.40;;;2.90;99.90;;;;;;5084545;28;20242;-77
2022/01/25 05:30:47;;;;;;;65.33;24.37;;;2.90;99.90;;;;;;5097637;27;20233;-76
2022/01/25 05:33:36;;;;;;;57.77;23.90;;;2.90;99.90;;;;;;5100486;27;20227;-78
2022/01/25 05:36:25;;;;;;;67.57;23.67;;;2.90;99.90;;;;;;5101158;27;20223;-78
2022/01/25 05:39:18;;;;;;;63.07;24.67;;;3.00;99.90;;;;;;5098045;28;20223;-78
2022/01/25 05:42:27;;;;;;;69.33;26.70;;;2.90;99.90;;;;;;5097731;27;20215;-78
2022/01/25 05:45:26;;;;;;;60.60;25.13;;;3.00;99.90;;;;;;5100203;27;20225;-77
2022/01/25 05:48:16;;;;;;;66.07;25.27;;;3.00;99.90;;;;;;5109803;27;20297;-78
2022/01/25 05:51:06;;;;;;;70.73;27.10;;;3.00;99.90;;;;;;5106294;27;20218;-79
2022/01/25 05:53:54;;;;;;;70.60;27.03;;;3.00;99.90;;;;;;5106936;27;20210;-77
2022/01/25 05:56:43;;;;;;;66.70;26.63;;;3.10;99.90;;;;;;5105350;27;20218;-76
2022/01/25 05:59:31;;;;;;;69.57;26.53;;;3.10;99.90;;;;;;5124608;27;20223;-77
2022/01/25 06:02:22;;;;;;;69.30;26.30;;;3.10;99.90;;;;;;5101781;27;20345;-75
2022/01/25 06:05:13;;;;;;;72.63;25.27;;;3.10;99.90;;;;;;5115579;27;20257;-77
2022/01/25 06:08:02;;;;;;;72.13;27.03;;;3.10;99.90;;;;;;5105226;27;20765;-77
2022/01/25 06:10:51;;;;;;;76.53;27.70;;;3.10;99.90;;;;;;5123273;27;20240;-78
2022/01/25 06:13:40;;;;;;;70.70;27.20;;;3.00;99.90;;;;;;5125154;27;20218;-77
2022/01/25 06:16:29;;;;;;;63.93;24.10;;;3.10;99.90;;;;;;5119081;27;20222;-74
2022/01/25 06:19:18;;;;;;;72.77;26.23;;;3.10;99.90;;;;;;5103943;27;20222;-74
2022/01/25 06:22:08;;;;;;;73.73;26.30;;;3.10;99.90;;;;;;5103469;27;20218;-71
2022/01/25 06:24:57;;;;;;;75.47;25.67;;;3.10;99.90;;;;;;5104608;27;20231;-72
2022/01/25 06:27:46;;;;;;;70.93;26.27;;;3.10;99.90;;;;;;5103739;27;20217;-71
2022/01/25 06:30:35;;;;;;;73.63;25.60;;;3.10;99.90;;;;;;5118585;27;20240;-72
2022/01/25 06:33:28;;;;;;;72.53;25.50;;;3.00;99.90;;;;;;5121361;27;20225;-73
2022/01/25 06:36:18;;;;;;;76.13;26.50;;;2.90;99.90;;;;;;5110092;27;20219;-73
2022/01/25 06:39:08;;;;;;;74.23;25.80;;;2.90;99.90;;;;;;5090558;28;20302;-74
2022/01/25 06:41:57;;;;;;;70.30;25.17;;;2.90;99.90;;;;;;5099158;27;20229;-72
2022/01/25 06:44:46;;;;;;;70.57;26.03;;;3.00;99.90;;;;;;5100249;27;20219;-73
2022/01/25 06:47:35;;;;;;;74.07;26.93;;;2.90;99.90;;;;;;5098545;27;20222;-73
2022/01/25 06:50:24;;;;;;;75.80;25.77;;;3.00;99.90;;;;;;5094841;28;20983;-73
2022/01/25 06:53:12;;;;;;;65.23;24.57;;;3.10;99.90;;;;;;5118398;27;20694;-73
2022/01/25 06:56:04;;;;;;;74.07;25.30;;;3.10;99.90;;;;;;5117861;27;20221;-74
2022/01/25 06:58:52;;;;;;;67.63;24.73;;;3.00;99.90;;;;;;5122102;27;20674;-74
2022/01/25 07:01:41;;;;;;;72.67;25.23;;;3.00;99.90;;;;;;5117997;27;20229;-73
2022/01/25 07:04:30;;;;;;;71.03;26.30;;;3.00;99.90;;;;;;5105754;28;20218;-72
2022/01/25 07:07:19;;;;;;;71.87;26.27;;;3.00;99.90;;;;;;5108717;28;20225;-73
2022/01/25 07:10:09;;;;;;;66.97;24.97;;;3.10;99.90;;;;;;5121762;27;20562;-72
2022/01/25 07:12:59;;;;;;;73.30;27.43;;;3.00;99.90;;;;;;5105089;28;20674;-75
2022/01/25 07:15:48;;;;;;;71.23;26.93;;;3.00;99.90;;;;;;5103957;28;20262;-74
2022/01/25 07:18:38;;;;;;;74.93;27.50;;;3.10;99.90;;;;;;5104683;28;20308;-73
2022/01/25 07:21:26;;;;;;;74.03;27.70;;;3.10;99.90;;;;;;5101705;27;20210;-74
2022/01/25 07:24:15;;;;;;;79.13;27.53;;;3.20;99.90;;;;;;5085031;28;20223;-74
2022/01/25 07:27:04;;;;;;;74.73;26.23;;;3.20;99.90;;;;;;5088362;28;20591;-72
2022/01/25 07:29:54;;;;;;;69.37;25.80;;;3.20;99.90;;;;;;5094222;28;20727;-73
2022/01/25 07:32:43;;;;;;;65.30;24.93;;;3.10;99.90;;;;;;5082716;28;20753;-74
2022/01/25 07:35:42;;;;;;;65.53;25.47;;;3.20;99.90;;;;;;5091343;28;20218;-74
2022/01/25 07:38:33;;;;;;;58.80;24.40;;;3.10;99.90;;;;;;5103553;28;20289;-75
2022/01/25 07:41:31;;;;;;;62.27;23.83;;;3.20;99.90;;;;;;5103615;27;20313;-75
2022/01/25 07:44:26;;;;;;;50.70;23.33;;;3.20;99.90;;;;;;5124894;27;20234;-73
2022/01/25 07:47:16;;;;;;;54.80;23.40;;;3.30;99.90;;;;;;5104126;27;20218;-74
2022/01/25 07:50:10;;;;;;;53.47;22.30;;;3.20;99.90;;;;;;5100694;27;20226;-73
2022/01/25 07:52:58;;;;;;;54.33;23.37;;;3.30;99.90;;;;;;5100753;27;20774;-74
2022/01/25 07:55:47;;;;;;;49.63;22.73;;;3.40;99.90;;;;;;5115813;27;20222;-73
2022/01/25 07:58:38;;;;;;;48.53;22.30;;;3.30;99.90;;;;;;5103651;27;20221;-73
2022/01/25 08:01:27;;;;;;;47.30;22.10;;;3.30;99.90;;;;;;5098974;27;20247;-73
2022/01/25 08:04:19;;;;;;;48.03;23.00;;;3.30;99.90;;;;;;5114677;27;20326;-74
2022/01/25 08:07:13;;;;;;;47.00;21.07;;;3.40;99.90;;;;;;5125518;27;20226;-72
2022/01/25 08:10:46;;;;;;;45.13;20.90;;;3.40;99.90;;;;;;5043821;28;20235;-74
2022/01/25 08:13:52;;;;;;;47.47;21.10;;;3.40;99.90;;;;;;5046876;28;20620;-78
2022/01/25 08:16:54;;;;;;;46.10;21.17;;;3.20;99.90;;;;;;5046024;28;20680;-74
2022/01/25 08:19:46;;;;;;;49.30;22.00;;;3.20;99.90;;;;;;5045092;28;20220;-75
2022/01/25 08:22:54;;;;;;;42.47;22.17;;;3.20;99.90;;;;;;5046128;28;20224;-74
2022/01/25 08:26:00;;;;;;;49.77;23.63;;;3.40;99.90;;;;;;5033198;28;20305;-76
2022/01/25 08:28:54;;;;;;;45.63;21.10;;;3.40;99.90;;;;;;5074927;27;20219;-74
2022/01/25 08:31:44;;;;;;;44.70;22.23;;;3.40;99.90;;;;;;5090913;28;20222;-76
2022/01/25 08:34:54;;;;;;;49.73;21.60;;;3.20;99.90;;;;;;5022138;28;20296;-75
2022/01/25 08:38:06;;;;;;;45.30;22.00;;;3.20;99.90;;;;;;5049509;28;20616;-78
2022/01/25 08:41:01;;;;;;;47.17;23.00;;;3.20;99.90;;;;;;5036976;28;20233;-76
2022/01/25 08:44:04;;;;;;;52.50;24.63;;;3.40;99.90;;;;;;5038950;28;20221;-75
2022/01/25 08:47:07;;;;;;;45.17;23.57;;;3.40;99.90;;;;;;5034338;28;20772;-73
2022/01/25 08:50:04;;;;;;;43.97;21.63;;;3.30;99.90;;;;;;5025835;28;20225;-74
2022/01/25 08:53:01;;;;;;;46.40;22.67;;;3.40;99.90;;;;;;5022845;28;20222;-73
2022/01/25 08:56:05;;;;;;;43.60;22.17;;;3.20;99.90;;;;;;5002973;28;20221;-76
2022/01/25 08:58:56;;;;;;;50.93;26.73;;;3.40;99.90;;;;;;4997878;28;20438;-71
2022/01/25 09:01:45;;;;;;;42.43;22.77;;;3.50;99.90;;;;;;4989156;28;20500;-75
2022/01/25 09:04:34;;;;;;;44.90;21.87;;;3.50;99.90;;;;;;4968676;28;20223;-70
2022/01/25 09:07:24;;;;;;;52.33;28.43;;;3.50;99.90;;;;;;4979437;28;20242;-74
2022/01/25 09:10:13;;;;;;;45.63;22.97;;;3.50;99.90;;;;;;4984697;28;20376;-72
2022/01/25 09:13:02;;;;;;;46.63;23.37;;;3.50;99.90;;;;;;5021663;28;20772;-73
2022/01/25 09:15:51;;;;;;;45.63;22.53;;;3.30;99.90;;;;;;5031575;28;20279;-73
2022/01/25 09:18:40;;;;;;;65.03;31.90;;;3.40;99.90;;;;;;5014158;28;20221;-73
2022/01/25 09:21:29;;;;;;;47.97;24.07;;;3.40;99.90;;;;;;5015614;28;20217;-73
2022/01/25 09:24:19;;;;;;;43.83;23.50;;;3.50;99.90;;;;;;5034078;28;20221;-72
2022/01/25 09:27:08;;;;;;;49.47;23.40;;;3.50;99.90;;;;;;5028709;28;20308;-73
2022/01/25 09:29:59;;;;;;;39.07;21.17;;;3.50;99.90;;;;;;5037594;28;20231;-74
2022/01/25 09:32:48;;;;;;;41.20;20.90;;;3.50;99.90;;;;;;5055669;28;20226;-73
2022/01/25 09:35:37;;;;;;;40.83;22.00;;;3.50;99.90;;;;;;5097098;27;21840;-73
2022/01/25 09:38:26;;;;;;;39.33;20.57;;;3.60;99.90;;;;;;5097690;27;20217;-74
2022/01/25 09:41:17;;;;;;;34.53;19.17;;;3.70;99.90;;;;;;5096456;27;20226;-72
2022/01/25 09:44:06;;;;;;;39.53;20.17;;;3.50;99.90;;;;;;5101319;27;20227;-75
2022/01/25 09:46:56;;;;;;;36.30;20.40;;;3.40;99.90;;;;;;5100966;27;20238;-73
2022/01/25 09:49:45;;;;;;;41.73;21.27;;;3.50;99.90;;;;;;5098214;27;20224;-72
2022/01/25 09:52:34;;;;;;;33.37;19.23;;;3.60;99.90;;;;;;5095932;27;20869;-72
2022/01/25 09:55:26;;;;;;;37.70;19.83;;;3.70;99.90;;;;;;5097255;28;20218;-73
2022/01/25 09:58:16;;;;;;;40.40;20.13;;;3.60;99.90;;;;;;5098737;28;20640;-73
2022/01/25 10:01:07;;;;;;;32.60;18.03;;;3.60;99.90;;;;;;5099519;27;20318;-72
2022/01/25 10:03:58;;;;;;;34.43;19.17;;;3.50;99.90;;;;;;5100007;28;20226;-69
2022/01/25 10:06:50;;;;;;;33.47;18.40;;;3.50;99.90;;;;;;5081347;27;20226;-72
2022/01/25 10:09:40;;;;;;;35.23;18.77;;;3.40;99.90;;;;;;5117221;27;20809;-72
2022/01/25 10:12:29;;;;;;;34.73;18.30;;;3.60;99.90;;;;;;5117586;27;20218;-72
2022/01/25 10:15:20;;;;;;;38.27;19.70;;;3.50;99.90;;;;;;5089459;28;20237;-75
2022/01/25 10:18:46;;;;;;;36.50;18.03;;;3.50;99.90;;;;;;5117484;27;20211;-76
2022/01/25 10:21:37;;;;;;;34.73;17.73;;;3.60;99.90;;;;;;5083666;28;20766;-74
2022/01/25 10:24:31;;;;;;;35.40;19.23;;;3.50;99.90;;;;;;5099832;28;20219;-73
2022/01/25 10:27:58;;;;;;;36.13;18.97;;;3.60;99.90;;;;;;5096864;28;20230;-74
2022/01/25 10:30:41;;;;;;;37.40;19.20;;;3.50;99.90;;;;;;5096859;27;20218;-72
2022/01/25 10:33:38;;;;;;;36.17;19.33;;;3.40;99.90;;;;;;5095730;28;20218;-72
2022/01/25 10:36:49;;;;;;;37.13;20.73;;;3.40;99.90;;;;;;5091409;27;20906;-73
2022/01/25 10:39:41;;;;;;;34.33;19.47;;;3.50;99.90;;;;;;5100811;27;20234;-73
2022/01/25 10:42:33;;;;;;;31.03;19.00;;;3.50;99.90;;;;;;5120165;27;20237;-73
2022/01/25 10:45:24;;;;;;;33.97;18.20;;;3.50;99.90;;;;;;5099476;27;20231;-73
2022/01/25 10:48:15;;;;;;;34.20;19.53;;;3.50;99.90;;;;;;5088986;28;20996;-73
2022/01/25 10:51:07;;;;;;;33.33;19.47;;;3.50;99.90;;;;;;5088993;28;20238;-72
2022/01/25 10:54:07;;;;;;;33.73;19.17;;;3.70;99.90;;;;;;5097310;28;20222;-74
2022/01/25 10:56:58;;;;;;;37.17;20.33;;;3.60;99.90;;;;;;5098312;27;20229;-72
2022/01/25 10:59:58;;;;;;;35.77;19.97;;;3.60;99.90;;;;;;5116240;27;20219;-72
2022/01/25 11:02:50;;;;;;;33.33;19.80;;;3.80;99.90;;;;;;5132530;27;20218;-72
2022/01/25 11:05:43;;;;;;;31.00;18.50;;;3.70;99.90;;;;;;5118536;28;20233;-72
2022/01/25 11:08:38;;;;;;;34.13;19.60;;;3.60;99.90;;;;;;5098954;27;20237;-73
2022/01/25 11:11:30;;;;;;;32.93;19.80;;;3.60;99.90;;;;;;5102680;28;20881;-73
2022/01/25 11:17:27;;;;;;;30.57;18.40;;;3.60;99.90;;;;;;5092227;28;20219;-70
2022/01/25 11:20:16;;;;;;;32.07;18.63;;;3.80;99.90;;;;;;5078556;28;20237;-72
2022/01/25 11:23:07;;;;;;;31.07;18.33;;;3.70;99.90;;;;;;5114221;28;20228;-72
2022/01/25 11:25:56;;;;;;;29.17;17.53;;;3.80;99.90;;;;;;5082728;28;20269;-72
2022/01/25 11:28:45;;;;;;;32.50;19.00;;;3.80;99.90;;;;;;5085816;28;20230;-73
2022/01/25 11:31:39;;;;;;;30.07;18.03;;;3.80;99.90;;;;;;5098120;28;20287;-72
2022/01/25 11:34:29;;;;;;;28.67;16.73;;;3.90;99.90;;;;;;5085516;28;20219;-72
2022/01/25 11:37:18;;;;;;;26.63;16.77;;;4.00;99.90;;;;;;5117472;27;20217;-72
2022/01/25 11:40:25;;;;;;;28.97;17.17;;;3.80;99.90;;;;;;5118989;27;20213;-72
2022/01/25 11:43:16;;;;;;;30.10;17.83;;;3.90;99.90;;;;;;5117656;27;20219;-72
2022/01/25 11:46:08;;;;;;;29.83;16.97;;;3.80;99.90;;;;;;5121026;27;20261;-71
2022/01/25 11:49:07;;;;;;;29.13;16.70;;;3.80;99.90;;;;;;5120659;27;20264;-72
2022/01/25 11:52:11;;;;;;;29.43;17.40;;;3.90;99.90;;;;;;5102442;27;20679;-72
2022/01/25 11:55:23;;;;;;;31.07;18.57;;;3.90;99.90;;;;;;5119864;27;20589;-73
2022/01/25 11:58:13;;;;;;;31.17;17.27;;;4.00;99.90;;;;;;5122218;27;20614;-71
2022/01/25 12:01:07;;;;;;;28.70;17.33;;;3.90;99.90;;;;;;5106792;27;20526;-71
2022/01/25 12:03:59;;;;;;;28.23;16.77;;;4.00;99.90;;;;;;5106557;27;20998;-73
2022/01/25 12:07:00;;;;;;;30.90;16.43;;;3.90;99.90;;;;;;5107496;27;20235;-71
2022/01/25 12:09:52;;;;;;;27.37;17.13;;;4.00;99.90;;;;;;5118010;27;20655;-72
2022/01/25 12:13:15;;;;;;;26.60;16.13;;;4.20;99.90;;;;;;5106425;27;20223;-71
2022/01/25 12:16:23;;;;;;;26.23;15.40;;;4.10;99.90;;;;;;5105073;27;20232;-71
2022/01/25 12:19:14;;;;;;;26.43;15.97;;;4.00;99.90;;;;;;5119895;27;20217;-71
2022/01/25 12:22:06;;;;;;;24.23;14.80;;;4.10;99.90;;;;;;5103617;27;20259;-70
2022/01/25 12:25:05;;;;;;;23.90;14.70;;;4.10;99.90;;;;;;5106458;27;20232;-71
2022/01/25 12:27:58;;;;;;;26.00;15.40;;;4.10;99.90;;;;;;5105760;27;20246;-71
2022/01/25 12:30:48;;;;;;;19.73;13.37;;;4.20;99.90;;;;;;5103495;27;20283;-71
2022/01/25 12:33:37;;;;;;;23.03;14.03;;;4.10;99.90;;;;;;5104141;27;21476;-71
2022/01/25 12:36:35;;;;;;;22.77;14.37;;;4.00;99.90;;;;;;5099774;27;20287;-71
2022/01/25 12:39:35;;;;;;;25.17;14.27;;;4.00;99.90;;;;;;5101942;27;20307;-72
2022/01/25 12:42:32;;;;;;;23.57;15.27;;;4.10;99.90;;;;;;5103831;27;22506;-73
2022/01/25 12:45:31;;;;;;;23.97;14.07;;;4.20;99.90;;;;;;5106318;27;21186;-73
2022/01/25 12:48:22;;;;;;;22.67;14.23;;;4.20;99.90;;;;;;5108585;27;20260;-74
2022/01/25 12:51:12;;;;;;;26.50;14.53;;;4.00;99.90;;;;;;5118706;27;20217;-75
2022/01/25 12:54:05;;;;;;;21.77;13.93;;;4.00;99.90;;;;;;5097054;27;20231;-73
2022/01/25 12:57:00;;;;;;;21.30;13.27;;;4.20;99.90;;;;;;5094499;27;20211;-74
2022/01/25 12:59:50;;;;;;;21.57;13.37;;;4.20;99.90;;;;;;5096414;28;20433;-73
2022/01/25 13:02:40;;;;;;;20.37;12.50;;;4.10;99.90;;;;;;5096503;27;20498;-73
2022/01/25 13:05:29;;;;;;;21.10;13.10;;;4.10;99.90;;;;;;5097139;27;20240;-73
2022/01/25 13:08:22;;;;;;;20.70;13.10;;;4.00;99.90;;;;;;5097449;28;20228;-73
2022/01/25 13:11:22;;;;;;;24.10;14.23;;;4.10;99.90;;;;;;5098870;27;20227;-74
2022/01/25 13:14:43;;;;;;;23.57;13.83;;;4.10;99.90;;;;;;5098038;28;20221;-75
2022/01/25 13:17:35;;;;;;;25.20;13.30;;;4.10;99.90;;;;;;5079699;28;20683;-73
2022/01/25 13:20:25;;;;;;;24.53;13.83;;;4.00;99.90;;;;;;5082935;28;20256;-73
2022/01/25 13:23:14;;;;;;;23.83;13.27;;;4.10;99.90;;;;;;5091408;27;20689;-72
2022/01/25 13:26:12;;;;;;;23.63;13.97;;;4.00;99.90;;;;;;5104220;27;20230;-73
2022/01/25 13:30:38;;;;;;;24.80;14.10;;;4.10;99.90;;;;;;5105821;27;20218;-73
2022/01/25 13:32:12;;;;;;;22.30;14.10;;;4.10;99.90;;;;;;5120973;27;20906;-72
2022/01/25 13:35:17;;;;;;;23.00;14.53;;;4.10;99.90;;;;;;5120976;27;20224;-71
2022/01/25 13:38:11;;;;;;;26.20;14.53;;;4.10;99.90;;;;;;5104655;27;20222;-74
2022/01/25 13:41:17;;;;;;;25.37;14.57;;;4.00;99.90;;;;;;5118583;27;20231;-73
2022/01/25 13:47:12;;;;;;;23.50;14.60;;;4.00;99.90;;;;;;5099478;27;20229;-73
2022/01/25 13:50:01;;;;;;;24.50;14.93;;;4.10;99.90;;;;;;5085025;27;20294;-73
2022/01/25 13:52:51;;;;;;;30.10;15.30;;;4.00;99.90;;;;;;5096770;27;20224;-71
2022/01/25 13:55:48;;;;;;;31.70;15.90;;;4.10;99.90;;;;;;5097717;27;20225;-71
2022/01/25 13:58:40;;;;;;;29.77;16.53;;;4.00;99.90;;;;;;5094151;27;20231;-73
2022/01/25 14:01:31;;;;;;;24.77;16.17;;;4.10;99.90;;;;;;5080988;28;20368;-74
2022/01/25 14:04:22;;;;;;;26.47;16.23;;;4.10;99.90;;;;;;5098295;27;20223;-74
2022/01/25 14:07:15;;;;;;;27.43;15.87;;;4.10;99.90;;;;;;5101265;27;20674;-74
2022/01/25 14:10:09;;;;;;;27.67;15.60;;;4.20;99.90;;;;;;5110461;27;20245;-74
2022/01/25 14:25:31;;;;;;;28.37;15.57;;;4.10;99.90;;;;;;5090621;28;20219;-72
2022/01/25 14:28:25;;;;;;;26.07;15.13;;;4.10;99.90;;;;;;5106998;27;20215;-75
2022/01/25 14:31:18;;;;;;;25.43;14.70;;;4.10;99.90;;;;;;5117115;27;20222;-73
2022/01/25 14:34:07;;;;;;;25.97;15.40;;;4.10;99.90;;;;;;5098451;27;20220;-75
2022/01/25 14:36:56;;;;;;;30.97;15.37;;;4.20;99.90;;;;;;5104160;27;20293;-75
2022/01/25 14:39:44;;;;;;;24.67;14.77;;;4.10;99.90;;;;;;5118733;27;20717;-70
2022/01/25 14:42:33;;;;;;;30.87;16.77;;;4.10;99.90;;;;;;5091433;27;20276;-75
2022/01/25 14:45:25;;;;;;;28.47;16.20;;;4.00;99.90;;;;;;5097990;28;20223;-73
2022/01/25 14:48:16;;;;;;;23.47;14.90;;;4.00;99.90;;;;;;5094820;28;21450;-73
2022/01/25 14:51:07;;;;;;;35.43;19.27;;;4.10;99.90;;;;;;5095400;28;20662;-75
2022/01/25 14:53:56;;;;;;;30.53;16.43;;;4.00;99.90;;;;;;5092956;27;21502;-74
2022/01/25 14:56:49;;;;;;;27.33;16.67;;;4.10;99.90;;;;;;5093412;28;20746;-73
2022/01/25 14:59:41;;;;;;;30.83;16.83;;;4.00;99.90;;;;;;5091821;28;20465;-72
2022/01/25 15:02:31;;;;;;;27.37;16.23;;;4.00;99.90;;;;;;5096350;28;20228;-73
2022/01/25 15:05:20;;;;;;;33.63;16.90;;;4.10;99.90;;;;;;5095469;28;20220;-73
2022/01/25 15:08:09;;;;;;;31.47;17.57;;;4.20;99.90;;;;;;5095733;28;20210;-74
2022/01/25 15:11:00;;;;;;;31.20;17.67;;;4.20;99.90;;;;;;5088160;28;20233;-73
2022/01/25 15:13:56;;;;;;;31.83;18.63;;;4.20;99.90;;;;;;5101128;27;20223;-76
2022/01/25 15:16:45;;;;;;;34.40;18.67;;;4.10;99.90;;;;;;5093686;28;20354;-74
2022/01/25 15:19:35;;;;;;;33.90;18.40;;;4.10;99.90;;;;;;5098251;28;20219;-73
2022/01/25 15:22:25;;;;;;;32.33;17.53;;;4.30;99.90;;;;;;5113901;27;20708;-74
2022/01/25 15:25:21;;;;;;;31.70;18.90;;;4.20;99.90;;;;;;5096624;27;20221;-73
2022/01/25 15:28:12;;;;;;;32.67;18.63;;;4.30;99.90;;;;;;5098143;28;20235;-75
2022/01/25 15:31:01;;;;;;;35.83;19.53;;;4.20;99.90;;;;;;5086559;27;20230;-74
2022/01/25 15:33:51;;;;;;;34.27;19.43;;;4.20;99.90;;;;;;5102026;27;20272;-73
2022/01/25 15:36:43;;;;;;;33.03;19.73;;;4.20;99.90;;;;;;5119482;27;20270;-72
2022/01/25 15:39:32;;;;;;;32.70;19.87;;;4.20;99.90;;;;;;5111018;27;20269;-73
2022/01/25 15:42:24;;;;;;;35.10;20.30;;;4.10;99.90;;;;;;5114273;27;20227;-72
2022/01/25 15:45:25;;;;;;;31.00;18.63;;;4.20;99.90;;;;;;5111454;27;20223;-75
2022/01/25 15:48:13;;;;;;;33.90;19.33;;;4.10;99.90;;;;;;5111302;27;20747;-74
2022/01/25 15:51:02;;;;;;;36.57;20.07;;;4.10;99.90;;;;;;5105839;27;20229;-74
2022/01/25 15:53:55;;;;;;;36.93;20.77;;;4.00;99.90;;;;;;5120275;27;20714;-71
2022/01/25 15:56:44;;;;;;;34.70;19.57;;;4.00;99.90;;;;;;5127239;27;20218;-73
2022/01/25 15:59:32;;;;;;;37.73;20.30;;;4.00;99.90;;;;;;5125152;27;20306;-73
2022/01/25 16:02:23;;;;;;;35.17;19.93;;;4.00;99.90;;;;;;5117970;27;20223;-73
2022/01/25 16:05:14;;;;;;;35.70;20.10;;;4.00;99.90;;;;;;5109728;27;20225;-73
2022/01/25 16:08:03;;;;;;;33.37;19.23;;;4.00;99.90;;;;;;5113810;27;20369;-72
2022/01/25 16:10:54;;;;;;;34.00;19.23;;;4.00;99.90;;;;;;5118237;27;20227;-74
2022/01/25 16:13:45;;;;;;;29.37;17.80;;;4.10;99.90;;;;;;5118618;27;20220;-73